Terminal Aerodrome Forecast
Issued by NWS Detroit/Pontiac, MI

Home | Current Version | Previous Version | Text Only | Print | Product List | Glossary On
Versions: 1 2 3 4 5 6 7 8 9 10 11 12 13 14 15 16 17 18 19
000
FTUS43 KDTX 250522
TAFFNT
TAF
KFNT 250522Z 2506/2606 20008KT 6SM -SHRA SCT035 BKN080 OVC200
      TEMPO 2506/2507 2SM TSRA OVC025CB
     FM250700 24007KT 5SM BR BKN020 OVC035
     FM251000 27005KT 3SM BR SCT020 BKN150
     FM251300 30010KT P6SM SCT040 BKN250
     FM251900 30013G20KT P6SM SCT050
     FM260100 26005KT P6SM SKC=

USA.gov is the U.S. government's official web portal to all federal, state and local government web resources and services.